Wetterstation Vordersexau
Wetterdaten: Woche 18.02.13 - 24.02.13 (KW8)
Datum Zeit Temp. A. Feuchte A. Luftdruck Regen Wind Richtung Taupunkt Windchill Windben
18.02.2013 00:00 0,5 C 83 % 1017,1 hPa 0,0 l/m 0,0 km/h O-NO -2,0 C 0,5 C 0,0 km/h
18.02.2013 01:00 0,6 C 84 % 1016,8 hPa 0,0 l/m 0,0 km/h O-SO -1,8 C 0,6 C 0,0 km/h
18.02.2013 02:00 -0,7 C 86 % 1016,6 hPa 0,0 l/m 0,0 km/h S-SO -2,7 C -0,7 C 0,0 km/h
18.02.2013 03:00 -2,5 C 86 % 1016,5 hPa 0,0 l/m 0,0 km/h O-SO -4,5 C -2,5 C 0,0 km/h
18.02.2013 04:00 -2,7 C 85 % 1016,4 hPa 0,0 l/m 0,0 km/h O-SO -4,9 C -2,7 C 0,0 km/h
18.02.2013 05:00 -1,7 C 84 % 1016,4 hPa 0,0 l/m 0,0 km/h O -4,0 C -1,7 C 0,0 km/h
18.02.2013 06:00 -2,2 C 85 % 1016,2 hPa 0,0 l/m 0,0 km/h SO -4,4 C -2,2 C 0,0 km/h
18.02.2013 07:00 -3,1 C 85 % 1016,3 hPa 0,0 l/m 0,0 km/h O-SO -5,3 C -3,1 C 0,0 km/h
18.02.2013 08:00 -2,3 C 83 % 1016,7 hPa 0,0 l/m 0,0 km/h SO -4,8 C -2,3 C 0,0 km/h
18.02.2013 09:00 2,8 C 86 % 1016,9 hPa 0,0 l/m 0,0 km/h SW 0,7 C 2,8 C 0,0 km/h
18.02.2013 10:00 8,8 C 72 % 1017,2 hPa 0,0 l/m 0,0 km/h W-NW 4,0 C 8,8 C 0,0 km/h
18.02.2013 11:00 10,8 C 59 % 1017,1 hPa 0,0 l/m 0,0 km/h N 3,1 C 10,8 C 0,0 km/h
18.02.2013 12:00 10,5 C 54 % 1016,8 hPa 0,0 l/m 0,0 km/h N 1,6 C 10,5 C 0,0 km/h
18.02.2013 13:00 9,6 C 53 % 1016,5 hPa 0,0 l/m 1,3 km/h N-NO 0,5 C 9,6 C 0,7 km/h
18.02.2013 14:00 11,5 C 49 % 1016,2 hPa 0,0 l/m 0,0 km/h N-NO 1,2 C 11,5 C 0,0 km/h
18.02.2013 15:00 12,7 C 48 % 1015,9 hPa 0,0 l/m 1,9 km/h N 2,0 C 12,7 C 1,1 km/h
18.02.2013 16:00 12,5 C 47 % 1016,0 hPa 0,0 l/m 1,3 km/h N 1,5 C 12,5 C 0,7 km/h
18.02.2013 17:00 10,8 C 49 % 1016,1 hPa 0,0 l/m 1,9 km/h O-SO 0,5 C 10,8 C 1,1 km/h
18.02.2013 18:00 1,9 C 70 % 1016,3 hPa 0,0 l/m 0,0 km/h S -3,0 C 1,9 C 0,0 km/h
18.02.2013 19:00 -0,1 C 79 % 1016,8 hPa 0,0 l/m 0,0 km/h S -3,3 C -0,1 C 0,0 km/h
18.02.2013 20:00 -1,2 C 82 % 1017,0 hPa 0,0 l/m 0,0 km/h S -3,9 C -1,2 C 0,0 km/h
18.02.2013 21:00 -2,2 C 84 % 1017,0 hPa 0,0 l/m 0,0 km/h SO -4,5 C -2,2 C 0,0 km/h
18.02.2013 22:00 -2,2 C 85 % 1017,1 hPa 0,0 l/m 0,0 km/h SO -4,4 C -2,2 C 0,0 km/h
18.02.2013 23:00 -3,0 C 86 % 1017,1 hPa 0,0 l/m 0,0 km/h SO -5,0 C -3,0 C 0,0 km/h
19.02.2013 00:00 -3,1 C 86 % 1017,1 hPa 0,0 l/m 0,0 km/h SO -5,1 C -3,1 C 0,0 km/h
19.02.2013 01:00 -3,2 C 86 % 1017,1 hPa 0,0 l/m 0,0 km/h SO -5,2 C -3,2 C 0,0 km/h
19.02.2013 02:00 -4,1 C 86 % 1017,0 hPa 0,0 l/m 0,0 km/h SO -6,1 C -4,1 C 0,0 km/h
19.02.2013 03:00 -4,6 C 86 % 1016,8 hPa 0,0 l/m 0,0 km/h O-SO -6,6 C -4,6 C 0,0 km/h
19.02.2013 04:00 -4,9 C 86 % 1016,6 hPa 0,0 l/m 0,0 km/h SO -6,9 C -4,9 C 0,0 km/h
19.02.2013 05:00 -4,9 C 86 % 1016,6 hPa 0,0 l/m 0,0 km/h O-SO -6,9 C -4,9 C 0,0 km/h
19.02.2013 06:00 -4,4 C 86 % 1016,2 hPa 0,0 l/m 0,0 km/h SO -6,4 C -4,4 C 0,0 km/h
19.02.2013 07:00 -4,8 C 86 % 1016,1 hPa 0,0 l/m 0,0 km/h SO -6,8 C -4,8 C 0,0 km/h
19.02.2013 08:00 -4,4 C 86 % 1016,3 hPa 0,0 l/m 0,0 km/h SO -6,4 C -4,4 C 0,0 km/h
19.02.2013 09:00 0,9 C 79 % 1016,3 hPa 0,0 l/m 0,0 km/h SO -2,3 C 0,9 C 0,0 km/h
19.02.2013 10:00 5,5 C 81 % 1015,9 hPa 0,0 l/m 0,0 km/h SO 2,5 C 5,5 C 0,0 km/h
19.02.2013 11:00 10,8 C 66 % 1015,8 hPa 0,0 l/m 0,0 km/h NO 4,7 C 10,8 C 0,0 km/h
19.02.2013 12:00 10,1 C 58 % 1015,2 hPa 0,0 l/m 0,0 km/h W 2,2 C 10,1 C 0,0 km/h
19.02.2013 13:00 8,7 C 58 % 1014,7 hPa 0,0 l/m 0,0 km/h SW 0,9 C 8,7 C 0,0 km/h
19.02.2013 14:00 10,9 C 53 % 1013,9 hPa 0,0 l/m 0,0 km/h SW 1,7 C 10,9 C 0,0 km/h
19.02.2013 15:00 8,8 C 53 % 1013,2 hPa 0,0 l/m 0,0 km/h SW -0,2 C 8,8 C 0,0 km/h
19.02.2013 16:00 8,6 C 54 % 1013,1 hPa 0,0 l/m 0,0 km/h O -0,2 C 8,6 C 0,0 km/h
19.02.2013 17:00 5,8 C 64 % 1013,2 hPa 0,0 l/m 0,0 km/h S-SW -0,5 C 5,8 C 0,0 km/h
19.02.2013 18:00 3,9 C 72 % 1013,5 hPa 0,0 l/m 11,0 km/h O-SO -0,7 C 0,1 C 6,1 km/h
19.02.2013 19:00 4,1 C 70 % 1014,0 hPa 0,0 l/m 0,0 km/h S-SO -0,9 C 4,1 C 0,0 km/h
19.02.2013 20:00 2,8 C 75 % 1014,1 hPa 0,0 l/m 0,0 km/h SO -1,2 C 2,8 C 0,0 km/h
19.02.2013 21:00 2,3 C 79 % 1014,8 hPa 0,0 l/m 0,0 km/h S -1,0 C 2,3 C 0,0 km/h
19.02.2013 22:00 2,0 C 83 % 1014,6 hPa 0,0 l/m 0,0 km/h S-SO -0,6 C 2,0 C 0,0 km/h
19.02.2013 23:00 1,6 C 84 % 1014,3 hPa 0,0 l/m 0,0 km/h S -0,8 C 1,6 C 0,0 km/h
20.02.2013 00:00 1,3 C 85 % 1014,4 hPa 0,0 l/m 0,0 km/h S -0,9 C 1,3 C 0,0 km/h
20.02.2013 01:00 1,0 C 85 % 1014,3 hPa 0,0 l/m 0,0 km/h S -1,2 C 1,0 C 0,0 km/h
20.02.2013 02:00 0,5 C 86 % 1014,4 hPa 0,0 l/m 0,0 km/h O-SO -1,6 C 0,5 C 0,0 km/h
20.02.2013 03:00 0,8 C 86 % 1014,3 hPa 0,0 l/m 0,0 km/h O-SO -1,3 C 0,8 C 0,0 km/h
20.02.2013 04:00 0,6 C 86 % 1014,3 hPa 0,0 l/m 0,0 km/h O-SO -1,5 C 0,6 C 0,0 km/h
20.02.2013 05:00 0,6 C 86 % 1014,7 hPa 0,0 l/m 0,0 km/h S-SO -1,5 C 0,6 C 0,0 km/h
20.02.2013 06:00 0,8 C 86 % 1014,7 hPa 0,0 l/m 0,0 km/h N-NO -1,3 C 0,8 C 0,0 km/h
20.02.2013 07:00 0,7 C 86 % 1014,7 hPa 0,0 l/m 0,0 km/h N-NW -1,4 C 0,7 C 0,0 km/h
20.02.2013 08:00 0,8 C 85 % 1015,2 hPa 0,0 l/m 0,0 km/h NW -1,4 C 0,8 C 0,0 km/h
20.02.2013 09:00 2,4 C 84 % 1015,7 hPa 0,0 l/m 0,0 km/h SO -0,0 C 2,4 C 0,0 km/h
20.02.2013 10:00 5,9 C 80 % 1015,7 hPa 0,0 l/m 0,0 km/h O-SO 2,7 C 5,9 C 0,0 km/h
20.02.2013 11:00 3,9 C 73 % 1015,7 hPa 0,0 l/m 0,0 km/h O-SO -0,5 C 3,9 C 0,0 km/h
20.02.2013 12:00 5,5 C 67 % 1015,6 hPa 0,0 l/m 1,9 km/h O -0,1 C 5,5 C 1,1 km/h
20.02.2013 13:00 6,9 C 59 % 1015,5 hPa 0,0 l/m 0,0 km/h O-SO -0,5 C 6,9 C 0,0 km/h
20.02.2013 14:00 5,8 C 58 % 1015,4 hPa 0,0 l/m 0,0 km/h SO -1,8 C 5,8 C 0,0 km/h
20.02.2013 15:00 4,4 C 63 % 1015,6 hPa 0,0 l/m 0,0 km/h O-SO -2,0 C 4,4 C 0,0 km/h
20.02.2013 16:00 2,9 C 65 % 1015,9 hPa 0,0 l/m 0,0 km/h O-SO -3,0 C 2,9 C 0,0 km/h
20.02.2013 17:00 2,2 C 66 % 1015,9 hPa 0,0 l/m 0,0 km/h O-SO -3,5 C 2,2 C 0,0 km/h
20.02.2013 18:00 1,3 C 67 % 1016,3 hPa 0,0 l/m 0,0 km/h O-NO -4,1 C 1,3 C 0,0 km/h
20.02.2013 19:00 1,3 C 62 % 1016,5 hPa 0,0 l/m 0,0 km/h SO -5,2 C 1,3 C 0,0 km/h
20.02.2013 20:00 0,8 C 66 % 1016,3 hPa 0,0 l/m 0,0 km/h O-SO -4,8 C 0,8 C 0,0 km/h
20.02.2013 21:00 0,2 C 70 % 1016,4 hPa 0,0 l/m 0,0 km/h O-SO -4,6 C 0,2 C 0,0 km/h
20.02.2013 22:00 -1,6 C 74 % 1016,4 hPa 0,0 l/m 0,0 km/h O -5,6 C -1,6 C 0,0 km/h
20.02.2013 23:00 -2,4 C 77 % 1016,2 hPa 0,0 l/m 0,0 km/h O-NO -5,9 C -2,4 C 0,0 km/h
21.02.2013 00:00 -3,1 C 78 % 1016,0 hPa 0,0 l/m 0,0 km/h O-NO -6,4 C -3,1 C 0,0 km/h
21.02.2013 01:00 -3,6 C 80 % 1015,7 hPa 0,0 l/m 0,0 km/h O -6,5 C -3,6 C 0,0 km/h
21.02.2013 02:00 -4,1 C 81 % 1015,5 hPa 0,0 l/m 0,0 km/h O-NO -6,9 C -4,1 C 0,0 km/h
21.02.2013 03:00 -3,3 C 82 % 1015,1 hPa 0,0 l/m 0,0 km/h O-SO -5,9 C -3,3 C 0,0 km/h
21.02.2013 04:00 -2,7 C 79 % 1014,3 hPa 0,0 l/m 0,0 km/h SO -5,8 C -2,7 C 0,0 km/h
21.02.2013 05:00 -2,6 C 75 % 1014,4 hPa 0,0 l/m 0,0 km/h O-SO -6,4 C -2,6 C 0,0 km/h
21.02.2013 06:00 -2,1 C 72 % 1014,3 hPa 0,0 l/m 1,3 km/h SO -6,5 C -2,1 C 0,7 km/h
21.02.2013 07:00 -2,2 C 73 % 1014,0 hPa 0,0 l/m 0,0 km/h O-SO -6,4 C -2,2 C 0,0 km/h
21.02.2013 08:00 -1,5 C 70 % 1014,3 hPa 0,0 l/m 0,0 km/h S-SO -6,2 C -1,5 C 0,0 km/h
21.02.2013 09:00 1,4 C 62 % 1014,2 hPa 0,0 l/m 11,7 km/h SO -5,1 C -3,2 C 6,5 km/h
21.02.2013 10:00 3,9 C 55 % 1013,9 hPa 0,0 l/m 0,0 km/h O-SO -4,3 C 3,9 C 0,0 km/h
21.02.2013 11:00 4,6 C 48 % 1014,0 hPa 0,0 l/m 5,8 km/h S-SO -5,4 C 4,6 C 3,2 km/h
21.02.2013 12:00 4,5 C 49 % 1013,7 hPa 0,0 l/m 0,0 km/h S-SO -5,3 C 4,5 C 0,0 km/h
21.02.2013 13:00 1,3 C 55 % 1013,2 hPa 0,0 l/m 3,2 km/h S-SO -6,7 C 1,3 C 1,8 km/h
21.02.2013 14:00 3,2 C 51 % 1012,6 hPa 0,0 l/m 0,0 km/h SO -5,9 C 3,2 C 0,0 km/h
21.02.2013 15:00 1,2 C 56 % 1012,3 hPa 0,0 l/m 0,0 km/h SO -6,6 C 1,2 C 0,0 km/h
21.02.2013 16:00 0,4 C 61 % 1012,4 hPa 0,0 l/m 0,0 km/h SO -6,2 C 0,4 C 0,0 km/h
21.02.2013 17:00 -0,2 C 62 % 1012,4 hPa 0,0 l/m 0,0 km/h SO -6,6 C -0,2 C 0,0 km/h
21.02.2013 18:00 -0,9 C 65 % 1012,4 hPa 0,0 l/m 0,0 km/h O-NO -6,6 C -0,9 C 0,0 km/h
21.02.2013 19:00 -1,3 C 68 % 1012,6 hPa 0,0 l/m 0,0 km/h O-SO -6,4 C -1,3 C 0,0 km/h
21.02.2013 20:00 -1,5 C 69 % 1012,3 hPa 0,0 l/m 7,1 km/h O-SO -6,4 C -2,3 C 4,0 km/h
21.02.2013 21:00 -2,1 C 72 % 1012,0 hPa 0,0 l/m 3,2 km/h O-SO -6,5 C -2,1 C 1,8 km/h
21.02.2013 22:00 -2,5 C 72 % 1011,3 hPa 0,0 l/m 9,7 km/h O -6,8 C -5,9 C 5,4 km/h
21.02.2013 23:00 -3,1 C 73 % 1010,9 hPa 0,0 l/m 0,0 km/h O -7,2 C -3,1 C 0,0 km/h
22.02.2013 00:00 -2,6 C 72 % 1010,6 hPa 0,0 l/m 0,6 km/h O -6,9 C -2,6 C 0,4 km/h
22.02.2013 01:00 -2,8 C 73 % 1010,1 hPa 0,0 l/m 0,0 km/h O-SO -6,9 C -2,8 C 0,0 km/h
22.02.2013 02:00 -2,6 C 71 % 1009,7 hPa 0,0 l/m 0,0 km/h O -7,1 C -2,6 C 0,0 km/h
22.02.2013 03:00 -2,9 C 71 % 1009,0 hPa 0,0 l/m 0,0 km/h O-SO -7,4 C -2,9 C 0,0 km/h
22.02.2013 04:00 -2,9 C 71 % 1008,2 hPa 0,0 l/m 7,8 km/h O-NO -7,4 C -4,5 C 4,3 km/h
22.02.2013 05:00 -3,2 C 72 % 1008,1 hPa 0,0 l/m 0,0 km/h O -7,5 C -3,2 C 0,0 km/h
22.02.2013 06:00 -3,2 C 72 % 1007,8 hPa 0,0 l/m 0,0 km/h O-NO -7,5 C -3,2 C 0,0 km/h
22.02.2013 07:00 -3,2 C 72 % 1007,7 hPa 0,0 l/m 14,3 km/h O -7,5 C -10,4 C 7,9 km/h
22.02.2013 08:00 -3,1 C 70 % 1007,7 hPa 0,0 l/m 0,0 km/h O-SO -7,8 C -3,1 C 0,0 km/h
22.02.2013 09:00 -2,1 C 68 % 1007,5 hPa 0,0 l/m 0,0 km/h NO -7,2 C -2,1 C 0,0 km/h
22.02.2013 10:00 -1,2 C 66 % 1007,6 hPa 0,0 l/m 5,8 km/h O-SO -6,7 C -1,2 C 3,2 km/h
22.02.2013 11:00 -1,0 C 63 % 1007,5 hPa 0,0 l/m 0,0 km/h O-SO -7,1 C -1,0 C 0,0 km/h
22.02.2013 12:00 0,2 C 61 % 1007,0 hPa 0,0 l/m 0,0 km/h O-SO -6,4 C 0,2 C 0,0 km/h
22.02.2013 13:00 0,2 C 59 % 1006,8 hPa 0,0 l/m 0,0 km/h S-SO -6,8 C 0,2 C 0,0 km/h
22.02.2013 14:00 -0,7 C 61 % 1006,6 hPa 0,0 l/m 0,0 km/h S-SO -7,3 C -0,7 C 0,0 km/h
22.02.2013 15:00 0,2 C 60 % 1006,4 hPa 0,0 l/m 0,0 km/h O-SO -6,6 C 0,2 C 0,0 km/h
22.02.2013 16:00 -1,0 C 63 % 1006,4 hPa 0,0 l/m 1,3 km/h O -7,1 C -1,0 C 0,7 km/h
22.02.2013 17:00 -1,9 C 68 % 1006,5 hPa 0,0 l/m 1,3 km/h O-SO -7,0 C -1,9 C 0,7 km/h
22.02.2013 18:00 -2,9 C 74 % 1007,1 hPa 0,0 l/m 5,2 km/h O-SO -6,9 C -2,9 C 2,9 km/h
22.02.2013 19:00 -3,2 C 74 % 1007,4 hPa 0,0 l/m 0,0 km/h O-SO -7,2 C -3,2 C 0,0 km/h
22.02.2013 20:00 -3,9 C 74 % 1007,2 hPa 0,0 l/m 0,0 km/h SO -7,8 C -3,9 C 0,0 km/h
22.02.2013 21:00 -3,9 C 74 % 1007,2 hPa 0,0 l/m 0,0 km/h SO -7,8 C -3,9 C 0,0 km/h
22.02.2013 22:00 -3,9 C 73 % 1007,0 hPa 0,0 l/m 0,0 km/h O-SO -8,0 C -3,9 C 0,0 km/h
22.02.2013 23:00 -4,6 C 75 % 1006,6 hPa 0,0 l/m 0,0 km/h O -8,3 C -4,6 C 0,0 km/h
23.02.2013 00:00 -5,1 C 76 % 1006,2 hPa 0,0 l/m 0,0 km/h O-NO -8,7 C -5,1 C 0,0 km/h
23.02.2013 01:00 -4,4 C 75 % 1006,2 hPa 0,0 l/m 0,0 km/h O -8,1 C -4,4 C 0,0 km/h
23.02.2013 02:00 -4,1 C 76 % 1005,9 hPa 0,0 l/m 0,0 km/h O-SO -7,7 C -4,1 C 0,0 km/h
23.02.2013 03:00 -4,1 C 76 % 1005,4 hPa 0,0 l/m 2,6 km/h O-SO -7,7 C -4,1 C 1,4 km/h
23.02.2013 04:00 -4,1 C 78 % 1005,3 hPa 0,0 l/m 0,0 km/h O-SO -7,4 C -4,1 C 0,0 km/h
23.02.2013 05:00 -4,1 C 79 % 1005,3 hPa 0,0 l/m 0,0 km/h O -7,2 C -4,1 C 0,0 km/h
23.02.2013 06:00 -4,1 C 78 % 1005,1 hPa 0,0 l/m 0,0 km/h O-SO -7,4 C -4,1 C 0,0 km/h
23.02.2013 07:00 -4,2 C 76 % 1005,3 hPa 0,0 l/m 0,0 km/h O-NO -7,8 C -4,2 C 0,0 km/h
23.02.2013 08:00 -3,8 C 76 % 1005,9 hPa 0,0 l/m 0,0 km/h SO -7,4 C -3,8 C 0,0 km/h
23.02.2013 09:00 -2,6 C 73 % 1006,0 hPa 0,0 l/m 0,0 km/h O -6,8 C -2,6 C 0,0 km/h
23.02.2013 10:00 2,6 C 60 % 1005,9 hPa 0,0 l/m 0,0 km/h O-NO -4,4 C 2,6 C 0,0 km/h
23.02.2013 11:00 3,9 C 54 % 1005,9 hPa 0,0 l/m 0,0 km/h S-SO -4,5 C 3,9 C 0,0 km/h
23.02.2013 12:00 4,9 C 47 % 1006,5 hPa 0,0 l/m 0,0 km/h O-NO -5,4 C 4,9 C 0,0 km/h
23.02.2013 13:00 2,6 C 46 % 1006,4 hPa 0,0 l/m 1,3 km/h O-NO -7,8 C 2,6 C 0,7 km/h
23.02.2013 14:00 0,1 C 62 % 1006,6 hPa 0,0 l/m 0,0 km/h O-SO -6,3 C 0,1 C 0,0 km/h
23.02.2013 15:00 0,6 C 62 % 1006,5 hPa 0,0 l/m 0,0 km/h NO -5,8 C 0,6 C 0,0 km/h
23.02.2013 16:00 -0,5 C 66 % 1006,1 hPa 0,0 l/m 0,0 km/h SO -6,1 C -0,5 C 0,0 km/h
23.02.2013 17:00 -1,4 C 70 % 1006,7 hPa 0,0 l/m 1,3 km/h O-SO -6,1 C -1,4 C 0,7 km/h
23.02.2013 18:00 -2,1 C 76 % 1007,3 hPa 0,0 l/m 0,0 km/h O-NO -5,7 C -2,1 C 0,0 km/h
23.02.2013 19:00 -2,4 C 79 % 1008,1 hPa 0,0 l/m 0,0 km/h O -5,5 C -2,4 C 0,0 km/h
23.02.2013 20:00 -2,5 C 79 % 1008,5 hPa 0,0 l/m 0,0 km/h O -5,6 C -2,5 C 0,0 km/h
23.02.2013 21:00 -2,7 C 79 % 1008,5 hPa 0,0 l/m 0,0 km/h SO -5,8 C -2,7 C 0,0 km/h
23.02.2013 22:00 -2,7 C 80 % 1008,4 hPa 0,0 l/m 0,0 km/h O-SO -5,7 C -2,7 C 0,0 km/h
23.02.2013 23:00 -2,7 C 80 % 1008,8 hPa 0,0 l/m 0,0 km/h NO -5,7 C -2,7 C 0,0 km/h
24.02.2013 00:00 -3,0 C 82 % 1008,5 hPa 0,0 l/m 0,0 km/h NO -5,6 C -3,0 C 0,0 km/h
24.02.2013 01:00 -3,4 C 84 % 1008,8 hPa 0,0 l/m 9,1 km/h O-SO -5,7 C -6,4 C 5,0 km/h
24.02.2013 02:00 -3,4 C 84 % 1009,0 hPa 0,0 l/m 1,9 km/h O-NO -5,7 C -3,4 C 1,1 km/h
24.02.2013 03:00 -3,4 C 84 % 1008,9 hPa 0,0 l/m 0,0 km/h NO -5,7 C -3,4 C 0,0 km/h
24.02.2013 04:00 -3,5 C 84 % 1008,7 hPa 0,0 l/m 0,0 km/h NO -5,8 C -3,5 C 0,0 km/h
24.02.2013 05:00 -3,6 C 85 % 1008,7 hPa 0,0 l/m 0,0 km/h N-NO -5,7 C -3,6 C 0,0 km/h
24.02.2013 06:00 -3,9 C 85 % 1008,9 hPa 0,0 l/m 0,0 km/h N-NO -6,0 C -3,9 C 0,0 km/h
24.02.2013 07:00 -3,9 C 85 % 1009,0 hPa 0,0 l/m 0,0 km/h N-NO -6,0 C -3,9 C 0,0 km/h
24.02.2013 08:00 -3,5 C 86 % 1009,5 hPa 0,0 l/m 0,0 km/h N-NO -5,5 C -3,5 C 0,0 km/h
24.02.2013 09:00 -2,5 C 85 % 1009,9 hPa 0,0 l/m 0,0 km/h N-NO -4,7 C -2,5 C 0,0 km/h
24.02.2013 10:00 -1,4 C 82 % 1009,8 hPa 0,0 l/m 0,0 km/h N -4,1 C -1,4 C 0,0 km/h
24.02.2013 11:00 2,2 C 74 % 1009,7 hPa 0,0 l/m 11,7 km/h N-NO -1,9 C -2,3 C 6,5 km/h
24.02.2013 12:00 1,1 C 73 % 1010,0 hPa 0,5 l/m 0,0 km/h O-NO -3,2 C 1,1 C 0,0 km/h
24.02.2013 13:00 -1,4 C 77 % 1010,0 hPa 0,0 l/m 0,0 km/h W-SW -4,9 C -1,4 C 0,0 km/h
24.02.2013 14:00 0,3 C 74 % 1010,0 hPa 0,0 l/m 2,6 km/h N-NO -3,8 C 0,3 C 1,4 km/h
24.02.2013 15:00 0,2 C 73 % 1009,9 hPa 0,0 l/m 0,0 km/h O-NO -4,1 C 0,2 C 0,0 km/h
24.02.2013 16:00 0,7 C 74 % 1010,2 hPa 0,0 l/m 0,0 km/h NO -3,4 C 0,7 C 0,0 km/h
24.02.2013 17:00 -0,8 C 75 % 1010,6 hPa 0,0 l/m 0,0 km/h O-NO -4,7 C -0,8 C 0,0 km/h
24.02.2013 18:00 -1,7 C 78 % 1011,2 hPa 0,0 l/m 0,0 km/h O-NO -5,0 C -1,7 C 0,0 km/h
24.02.2013 19:00 -2,2 C 80 % 1011,7 hPa 0,0 l/m 0,0 km/h W-SW -5,2 C -2,2 C 0,0 km/h
24.02.2013 20:00 -2,1 C 82 % 1012,3 hPa 0,0 l/m 0,0 km/h S -4,7 C -2,1 C 0,0 km/h
24.02.2013 21:00 -2,2 C 83 % 1012,9 hPa 0,0 l/m 0,0 km/h SO -4,7 C -2,2 C 0,0 km/h
24.02.2013 22:00 -3,3 C 84 % 1013,1 hPa 0,0 l/m 0,0 km/h S -5,6 C -3,3 C 0,0 km/h
24.02.2013 23:00 -4,5 C 85 % 1013,1 hPa 0,0 l/m 0,0 km/h S -6,6 C -4,5 C 0,0 km/h
Min-Datum _ 23.02.13 23.02.13 23.02.13 - 18.02.13 - 23.02.13 22.02.13 18.02.13
_ Min-Zeit 00:19 13:19 06:19 - 00:19 - 00:19 07:19 00:19
Minimum _ -5,1 C 46 % 1005,1 hPa - 0,0 km/h - -8,7 C -10,4 C 0,0 km/h
Max-Datum _ 18.02.13 18.02.13 18.02.13 24.02.13 22.02.13 - 19.02.13 18.02.13 22.02.13
_ Max-Zeit 15:19 02:19 10:19 12:19 07:19 - 11:19 15:19 07:19
Maximum _ 12,7 C 86 % 1017,2 hPa 0,5 l/m 14,3 km/h
O
- 4,7 C 12,7 C 7,9 km/h
O
Durchschnitt _ -0,0 C 73 % 1012,2 hPa #0,5 l/m 0,8 km/h O-SO -4,4 C -0,2 C 0,4 km/h
www.sexauwetter.de